Terminal Aerodrome Forecast
Issued by NWS

Home | Current Version | Previous Version | Text Only | Print | Product List | Glossary On
Versions: 1 2 3 4 5 6 7 8 9 10 11 12 13 14 15 16 17 18 19 20 21 22
000
FTUS45 KTFX 262300
TAFHVR
TAF
KHVR 262340Z 2700/2724 22008KT P6SM SCT025
      TEMPO 2700/2702 BKN025
     FM270200 21008KT P6SM BKN060
     FM270600 22008KT P6SM SCT090 BKN150
     FM271400 23010KT P6SM VCSH SCT030 OVC050=

USA.gov is the U.S. government's official web portal to all federal, state and local government web resources and services.